Time;durP1;ratioP1;P1;durP2;ratioP2;P2;SDS_P1;SDS_P2;PMS_P1;PMS_P2;Temp;Humidity;BMP_temperature;BMP_pressure;BME280_temperature;BME280_humidity;BME280_pressure;Samples;Min_cycle;Max_cycle;Signal;HPM_P1;HPM_P2
2022/01/08 00:00:06;;;;;;;19.83;12.00;;;1.70;99.90;;;;;;4932475;28;20049;-80
2022/01/08 00:02:39;;;;;;;19.80;11.20;;;1.70;99.90;;;;;;4951452;28;20034;-80
2022/01/08 00:05:06;;;;;;;16.17;10.93;;;1.80;99.90;;;;;;4966337;28;20053;-80
2022/01/08 00:07:32;;;;;;;21.03;12.00;;;1.80;99.90;;;;;;4917519;28;20477;-80
2022/01/08 00:09:59;;;;;;;16.50;11.13;;;1.70;99.90;;;;;;4981177;28;20029;-81
2022/01/08 00:12:25;;;;;;;17.73;10.20;;;1.70;99.90;;;;;;4945459;28;20042;-80
2022/01/08 00:14:52;;;;;;;19.73;11.87;;;1.70;99.90;;;;;;4948506;28;20026;-84
2022/01/08 00:17:22;;;;;;;18.53;10.60;;;1.70;99.90;;;;;;4940969;28;20030;-84
2022/01/08 00:19:50;;;;;;;17.47;10.43;;;1.60;99.90;;;;;;4966240;28;20050;-85
2022/01/08 00:22:16;;;;;;;24.50;13.00;;;1.50;99.90;;;;;;4918022;28;20026;-84
2022/01/08 00:24:44;;;;;;;24.87;13.73;;;1.50;99.90;;;;;;4950859;28;20018;-80
2022/01/08 00:27:10;;;;;;;24.83;13.83;;;1.40;99.90;;;;;;4963435;28;20038;-80
2022/01/08 00:29:37;;;;;;;20.90;12.23;;;1.40;99.90;;;;;;4946146;28;20035;-80
2022/01/08 00:32:04;;;;;;;21.37;12.47;;;1.40;99.90;;;;;;4946066;28;20485;-80
2022/01/08 00:34:31;;;;;;;20.80;11.83;;;1.40;99.90;;;;;;4930429;28;20042;-80
2022/01/08 00:36:57;;;;;;;19.97;12.43;;;1.30;99.90;;;;;;4969121;28;20053;-80
2022/01/08 00:39:24;;;;;;;19.57;11.63;;;1.30;99.90;;;;;;4968399;28;20053;-85
2022/01/08 00:41:50;;;;;;;17.40;11.63;;;1.20;99.90;;;;;;4918822;28;20450;-85
2022/01/08 00:44:18;;;;;;;20.23;11.23;;;1.20;99.90;;;;;;4938673;28;20495;-84
2022/01/08 00:46:47;;;;;;;19.20;11.47;;;1.20;99.90;;;;;;4934601;28;20034;-80
2022/01/08 00:49:13;;;;;;;17.57;10.77;;;1.20;99.90;;;;;;4949783;28;20043;-80
2022/01/08 00:51:40;;;;;;;19.50;11.33;;;1.10;99.90;;;;;;4980090;28;20037;-80
2022/01/08 00:54:07;;;;;;;14.37;9.37;;;1.10;99.90;;;;;;4979376;28;20026;-80
2022/01/08 00:56:33;;;;;;;17.40;11.20;;;1.10;99.90;;;;;;4968050;28;20038;-82
2022/01/08 00:59:00;;;;;;;20.90;12.03;;;1.10;99.90;;;;;;4950238;28;20603;-79
2022/01/08 01:01:26;;;;;;;15.50;9.83;;;1.10;99.90;;;;;;4949549;28;20034;-80
2022/01/08 01:03:53;;;;;;;16.33;10.53;;;1.10;99.90;;;;;;4932853;28;20030;-80
2022/01/08 01:06:19;;;;;;;15.90;10.77;;;1.00;99.90;;;;;;4948552;28;20475;-84
2022/01/08 01:08:46;;;;;;;19.83;11.03;;;1.00;99.90;;;;;;4934938;28;20037;-85
2022/01/08 01:11:12;;;;;;;17.07;10.77;;;1.10;99.90;;;;;;4933029;28;20034;-80
2022/01/08 01:13:39;;;;;;;19.70;11.93;;;1.00;99.90;;;;;;4945567;28;20417;-73
2022/01/08 01:16:05;;;;;;;17.90;11.43;;;1.00;99.90;;;;;;4980711;28;20537;-73
2022/01/08 01:18:32;;;;;;;23.50;12.67;;;1.00;99.90;;;;;;4979650;28;20050;-73
2022/01/08 01:20:59;;;;;;;19.87;12.83;;;1.00;99.90;;;;;;4962297;28;20049;-73
2022/01/08 01:23:34;;;;;;;18.87;12.37;;;1.10;99.90;;;;;;4979685;28;20030;-73
2022/01/08 01:26:04;;;;;;;16.43;10.33;;;1.10;99.90;;;;;;4979472;28;20029;-73
2022/01/08 01:47:16;;;;;;;21.20;13.23;;;1.00;99.90;;;;;;4981565;28;20042;-73
2022/01/08 01:49:46;;;;;;;20.63;14.87;;;1.00;99.90;;;;;;4980041;28;20026;-73
2022/01/08 01:52:15;;;;;;;20.57;14.03;;;1.00;99.90;;;;;;4978322;28;20045;-73
2022/01/08 01:54:42;;;;;;;21.03;14.00;;;1.00;99.90;;;;;;4977744;28;20535;-73
2022/01/08 01:57:12;;;;;;;22.47;13.20;;;1.00;99.90;;;;;;4979020;28;20445;-73
2022/01/08 01:59:40;;;;;;;19.27;11.90;;;1.00;99.90;;;;;;4980627;28;20537;-73
2022/01/08 02:02:07;;;;;;;19.00;11.87;;;1.00;99.90;;;;;;4961266;28;20053;-73
2022/01/08 02:04:33;;;;;;;18.47;10.93;;;0.90;99.90;;;;;;4976927;28;20504;-73
2022/01/08 02:07:00;;;;;;;19.90;13.20;;;1.00;99.90;;;;;;4979606;28;20030;-73
2022/01/08 02:09:27;;;;;;;18.83;12.60;;;0.90;99.90;;;;;;4978118;28;20602;-73
2022/01/08 02:12:11;;;;;;;21.83;13.63;;;0.90;99.90;;;;;;4979236;28;20026;-73
2022/01/08 02:14:39;;;;;;;22.20;12.70;;;0.90;99.90;;;;;;4977548;28;20485;-73
2022/01/08 02:17:07;;;;;;;22.63;12.20;;;0.90;99.90;;;;;;4962712;28;20022;-73
2022/01/08 02:19:33;;;;;;;15.93;11.27;;;0.80;99.90;;;;;;4976767;28;20053;-73
2022/01/08 02:22:02;;;;;;;18.90;11.93;;;0.80;99.90;;;;;;4975863;28;20046;-72
2022/01/08 02:24:29;;;;;;;18.13;11.93;;;0.80;99.90;;;;;;4978622;28;20029;-73
2022/01/08 02:26:56;;;;;;;17.90;11.97;;;0.80;99.90;;;;;;4977214;28;20041;-73
2022/01/08 02:29:25;;;;;;;16.87;10.97;;;0.90;99.90;;;;;;4978456;28;20033;-73
2022/01/08 02:31:56;;;;;;;21.57;12.97;;;0.90;99.90;;;;;;4961896;28;20026;-73
2022/01/08 02:34:24;;;;;;;23.97;12.90;;;1.00;99.90;;;;;;4980007;28;20026;-73
2022/01/08 02:36:51;;;;;;;18.10;12.83;;;1.00;99.90;;;;;;4977451;28;20745;-73
2022/01/08 02:39:17;;;;;;;19.10;12.63;;;1.00;99.90;;;;;;4977347;28;20045;-73
2022/01/08 02:41:44;;;;;;;21.23;13.23;;;1.00;99.90;;;;;;4961757;28;20033;-73
2022/01/08 02:44:11;;;;;;;25.73;15.90;;;1.00;99.90;;;;;;4960699;28;20038;-73
2022/01/08 02:46:41;;;;;;;26.87;17.37;;;0.90;99.90;;;;;;4977357;28;20014;-73
2022/01/08 02:49:08;;;;;;;29.43;17.00;;;0.90;99.90;;;;;;4977594;28;20034;-72
2022/01/08 02:51:35;;;;;;;24.27;15.37;;;0.90;99.90;;;;;;4977683;28;20038;-73
2022/01/08 02:54:06;;;;;;;23.50;13.83;;;0.90;99.90;;;;;;4973044;28;20053;-73
2022/01/08 02:56:33;;;;;;;22.93;14.07;;;1.00;99.90;;;;;;4977741;28;20367;-73
2022/01/08 02:58:59;;;;;;;21.97;12.70;;;1.00;99.90;;;;;;4976689;28;20042;-72
2022/01/08 03:01:25;;;;;;;20.77;13.63;;;1.10;99.90;;;;;;4975928;28;20496;-73
2022/01/08 03:03:56;;;;;;;22.87;11.80;;;1.10;99.90;;;;;;4976030;28;20022;-73
2022/01/08 03:06:23;;;;;;;20.37;12.53;;;1.20;99.90;;;;;;4963141;28;20022;-73
2022/01/08 03:08:50;;;;;;;24.03;12.77;;;1.20;99.90;;;;;;4963785;28;20493;-73
2022/01/08 03:11:16;;;;;;;19.73;12.10;;;1.30;99.90;;;;;;4976237;28;20022;-72
2022/01/08 03:13:43;;;;;;;19.33;9.93;;;1.30;99.90;;;;;;4975105;28;20055;-73
2022/01/08 03:16:09;;;;;;;18.63;12.90;;;1.40;99.90;;;;;;4977122;28;20496;-73
2022/01/08 03:18:37;;;;;;;23.37;14.83;;;1.40;99.90;;;;;;4976817;28;20565;-73
2022/01/08 03:21:16;;;;;;;21.90;15.03;;;1.50;99.90;;;;;;4976060;28;20042;-72
2022/01/08 03:23:58;;;;;;;21.60;13.90;;;1.50;99.90;;;;;;4975966;28;20355;-73
2022/01/08 03:26:27;;;;;;;21.98;14.70;;;1.50;99.90;;;;;;4976422;28;20022;-73
2022/01/08 03:28:54;;;;;;;23.27;13.70;;;1.60;99.90;;;;;;4962604;28;20026;-73
2022/01/08 03:31:22;;;;;;;25.87;14.77;;;1.60;99.90;;;;;;4976710;28;20034;-72
2022/01/08 03:33:50;;;;;;;22.93;13.57;;;1.60;99.90;;;;;;4979470;28;20034;-72
2022/01/08 03:36:19;;;;;;;19.40;12.53;;;1.60;99.90;;;;;;4964294;28;20484;-73
2022/01/08 03:38:46;;;;;;;19.40;12.40;;;1.70;99.90;;;;;;4963281;28;20026;-73
2022/01/08 03:41:12;;;;;;;21.30;13.27;;;1.70;99.90;;;;;;4982472;28;20034;-73
2022/01/08 03:43:38;;;;;;;22.97;13.60;;;1.70;99.90;;;;;;4978321;28;20031;-73
2022/01/08 03:46:05;;;;;;;24.50;15.57;;;1.60;99.90;;;;;;4962663;28;20030;-73
2022/01/08 03:48:45;;;;;;;22.37;13.37;;;1.60;99.90;;;;;;4982896;28;20025;-73
2022/01/08 03:51:13;;;;;;;22.80;13.30;;;1.50;99.90;;;;;;4982809;28;20485;-73
2022/01/08 03:53:41;;;;;;;19.97;13.93;;;1.60;99.90;;;;;;4976953;28;20034;-73
2022/01/08 03:56:08;;;;;;;22.93;13.43;;;1.50;99.90;;;;;;4980821;28;20034;-73
2022/01/08 03:58:34;;;;;;;21.30;13.13;;;1.50;99.90;;;;;;4981636;28;20018;-73
2022/01/08 04:01:01;;;;;;;18.10;12.17;;;1.40;99.90;;;;;;4981556;28;20115;-72
2022/01/08 04:03:28;;;;;;;20.40;13.27;;;1.40;99.90;;;;;;4981012;28;20567;-72
2022/01/08 04:05:55;;;;;;;20.63;12.73;;;1.40;99.90;;;;;;4980417;28;20465;-73
2022/01/08 04:08:21;;;;;;;19.53;12.07;;;1.30;99.90;;;;;;4982938;28;20057;-73
2022/01/08 04:10:48;;;;;;;17.83;10.87;;;1.30;99.90;;;;;;4979016;28;20030;-73
2022/01/08 04:13:19;;;;;;;13.33;8.93;;;1.20;99.90;;;;;;4980270;28;20030;-73
2022/01/08 04:15:47;;;;;;;20.27;12.53;;;1.20;99.90;;;;;;4980976;28;20030;-73
2022/01/08 04:18:14;;;;;;;21.10;12.10;;;1.10;99.90;;;;;;4981020;28;20044;-73
2022/01/08 04:23:38;;;;;;;22.13;12.83;;;1.10;99.90;;;;;;4993740;28;20281;-73
2022/01/08 04:26:04;;;;;;;21.60;13.63;;;1.00;99.90;;;;;;4981564;28;20025;-72
2022/01/08 04:28:31;;;;;;;18.37;12.47;;;1.00;99.90;;;;;;4983051;28;20027;-73
2022/01/08 04:30:57;;;;;;;17.40;11.47;;;1.00;99.90;;;;;;4979909;28;20030;-73
2022/01/08 04:33:27;;;;;;;17.97;10.40;;;0.90;99.90;;;;;;4979136;28;20041;-73
2022/01/08 04:35:55;;;;;;;19.33;11.13;;;0.90;99.90;;;;;;4979091;28;20037;-73
2022/01/08 04:38:22;;;;;;;14.40;9.60;;;0.90;99.90;;;;;;4982103;28;20062;-72
2022/01/08 04:40:48;;;;;;;15.63;9.17;;;0.90;99.90;;;;;;4963496;28;20039;-73
2022/01/08 04:43:15;;;;;;;13.27;8.57;;;0.80;99.90;;;;;;4979713;28;20029;-74
2022/01/08 04:45:42;;;;;;;15.33;9.73;;;0.80;99.90;;;;;;4966696;28;20485;-73
2022/01/08 04:48:09;;;;;;;16.10;8.83;;;0.80;99.90;;;;;;4984609;28;20029;-73
2022/01/08 04:50:35;;;;;;;13.87;8.77;;;0.80;99.90;;;;;;4979247;28;20042;-73
2022/01/08 04:53:02;;;;;;;14.23;8.10;;;0.70;99.90;;;;;;4978647;28;20022;-73
2022/01/08 04:55:28;;;;;;;18.63;8.40;;;0.70;99.90;;;;;;4964950;28;20049;-73
2022/01/08 04:57:55;;;;;;;11.83;8.10;;;0.60;99.90;;;;;;4982806;28;20030;-73
2022/01/08 05:00:22;;;;;;;14.00;8.73;;;0.60;99.90;;;;;;4964510;28;20049;-73
2022/01/08 05:02:49;;;;;;;11.67;8.53;;;0.60;99.90;;;;;;4982160;28;20783;-73
2022/01/08 05:05:16;;;;;;;12.67;8.07;;;0.60;99.90;;;;;;4983225;28;20018;-73
2022/01/08 05:07:43;;;;;;;13.77;8.17;;;0.60;99.90;;;;;;4982401;28;20015;-74
2022/01/08 05:10:09;;;;;;;13.93;8.03;;;0.60;99.90;;;;;;4981042;28;20397;-73
2022/01/08 05:12:36;;;;;;;13.77;8.20;;;0.50;99.90;;;;;;4978058;28;20029;-73
2022/01/08 05:15:03;;;;;;;10.07;7.97;;;0.60;99.90;;;;;;4979088;28;20031;-73
2022/01/08 05:17:35;;;;;;;14.87;8.40;;;0.50;99.90;;;;;;4982427;28;20029;-73
2022/01/08 05:20:11;;;;;;;19.33;9.10;;;0.50;99.90;;;;;;4981128;28;20050;-73
2022/01/08 05:25:17;;;;;;;11.30;7.73;;;0.50;99.90;;;;;;4982457;28;20038;-73
2022/01/08 05:27:44;;;;;;;17.53;9.47;;;0.50;99.90;;;;;;4982099;28;20042;-73
2022/01/08 05:30:13;;;;;;;16.50;8.93;;;0.50;99.90;;;;;;4980844;28;20029;-73
2022/01/08 05:32:39;;;;;;;12.60;8.97;;;0.40;99.90;;;;;;4978560;28;20031;-72
2022/01/08 05:35:06;;;;;;;14.27;8.93;;;0.40;99.90;;;;;;4980798;28;20030;-72
2022/01/08 05:37:33;;;;;;;13.47;7.87;;;0.50;99.90;;;;;;4982848;28;20014;-72
2022/01/08 05:40:00;;;;;;;17.37;8.87;;;0.40;99.90;;;;;;4983359;28;20034;-72
2022/01/08 05:42:26;;;;;;;15.13;9.00;;;0.40;99.90;;;;;;4962522;28;20034;-73
2022/01/08 05:44:52;;;;;;;12.30;7.37;;;0.40;99.90;;;;;;4967001;28;20038;-72
2022/01/08 05:47:21;;;;;;;14.47;8.17;;;0.40;99.90;;;;;;4978980;28;20027;-73
2022/01/08 05:49:47;;;;;;;15.40;8.30;;;0.50;99.90;;;;;;4962489;28;20026;-72
2022/01/08 05:52:14;;;;;;;15.80;8.63;;;0.40;99.90;;;;;;4975332;28;20030;-73
2022/01/08 05:54:42;;;;;;;13.87;8.20;;;0.40;99.90;;;;;;4979714;28;20037;-72
2022/01/08 05:57:08;;;;;;;16.90;8.03;;;0.40;99.90;;;;;;4980029;28;20030;-73
2022/01/08 05:59:35;;;;;;;13.13;7.60;;;0.40;99.90;;;;;;4981403;28;20034;-73
2022/01/08 06:02:01;;;;;;;15.30;8.37;;;0.40;99.90;;;;;;4976623;28;20038;-73
2022/01/08 06:04:28;;;;;;;12.80;7.53;;;0.40;99.90;;;;;;4977282;28;20386;-73
2022/01/08 06:06:54;;;;;;;15.27;7.70;;;0.40;99.90;;;;;;4980143;28;20018;-72
2022/01/08 06:09:20;;;;;;;16.80;9.23;;;0.30;99.90;;;;;;4977009;28;20030;-72
2022/01/08 06:11:47;;;;;;;10.90;7.33;;;0.30;99.90;;;;;;4978821;28;20378;-73
2022/01/08 06:14:13;;;;;;;15.13;8.90;;;0.40;99.90;;;;;;4975393;28;20077;-72
2022/01/08 06:16:40;;;;;;;17.23;9.60;;;0.40;99.90;;;;;;4963870;28;20027;-73
2022/01/08 06:19:09;;;;;;;13.50;8.57;;;0.30;99.90;;;;;;4980679;28;20042;-72
2022/01/08 06:21:36;;;;;;;15.23;9.00;;;0.30;99.90;;;;;;4979765;28;20046;-73
2022/01/08 06:24:06;;;;;;;13.03;7.30;;;0.30;99.90;;;;;;4977346;28;20027;-72
2022/01/08 06:26:34;;;;;;;17.27;9.10;;;0.30;99.90;;;;;;4979865;28;20021;-72
2022/01/08 06:29:01;;;;;;;16.07;9.37;;;0.30;99.90;;;;;;4982275;28;20103;-72
2022/01/08 06:31:27;;;;;;;16.87;10.07;;;0.30;99.90;;;;;;4982795;28;20477;-72
2022/01/08 06:33:54;;;;;;;17.23;9.67;;;0.30;99.90;;;;;;4975248;28;20030;-72
2022/01/08 06:36:23;;;;;;;24.87;9.93;;;0.30;99.90;;;;;;4981405;28;20481;-72
2022/01/08 06:38:50;;;;;;;18.53;8.50;;;0.30;99.90;;;;;;4979299;28;20026;-73
2022/01/08 06:41:17;;;;;;;18.10;9.27;;;0.30;99.90;;;;;;4963693;28;23615;-73
2022/01/08 06:43:44;;;;;;;13.27;7.33;;;0.30;99.90;;;;;;4946564;28;20024;-73
2022/01/08 06:46:12;;;;;;;12.83;7.00;;;0.30;99.90;;;;;;4982486;28;20014;-73
2022/01/08 06:48:38;;;;;;;18.93;9.17;;;0.30;99.90;;;;;;4962867;28;20034;-72
2022/01/08 06:51:05;;;;;;;14.50;7.57;;;0.30;99.90;;;;;;4962596;28;20378;-72
2022/01/08 06:53:31;;;;;;;15.87;8.40;;;0.30;99.90;;;;;;4976867;28;20040;-73
2022/01/08 06:55:58;;;;;;;13.63;7.90;;;0.30;99.90;;;;;;4963647;28;20026;-73
2022/01/08 06:58:26;;;;;;;15.53;7.73;;;0.30;99.90;;;;;;4963511;28;20034;-73
2022/01/08 07:00:52;;;;;;;18.37;8.57;;;0.30;99.90;;;;;;4979629;28;20037;-73
2022/01/08 07:03:19;;;;;;;17.10;8.60;;;0.30;99.90;;;;;;4977231;28;20031;-72
2022/01/08 07:05:45;;;;;;;14.83;8.20;;;0.30;99.90;;;;;;4978800;28;20069;-73
2022/01/08 07:08:12;;;;;;;21.10;8.67;;;0.30;99.90;;;;;;4980144;28;20022;-73
2022/01/08 07:10:38;;;;;;;17.33;9.50;;;0.30;99.90;;;;;;4976920;28;20030;-73
2022/01/08 07:13:05;;;;;;;18.13;9.33;;;0.30;99.90;;;;;;4978074;28;20466;-72
2022/01/08 07:15:31;;;;;;;18.73;9.97;;;0.30;99.90;;;;;;4976637;28;20025;-73
2022/01/08 07:17:59;;;;;;;20.77;9.50;;;0.40;99.90;;;;;;4966948;28;20058;-73
2022/01/08 07:20:25;;;;;;;14.87;9.33;;;0.40;99.90;;;;;;4978928;28;20047;-73
2022/01/08 07:22:53;;;;;;;17.33;10.70;;;0.40;99.90;;;;;;4977148;28;20368;-73
2022/01/08 07:25:19;;;;;;;16.63;9.17;;;0.40;99.90;;;;;;4982307;28;20019;-73
2022/01/08 07:27:45;;;;;;;20.67;10.17;;;0.40;99.90;;;;;;4961897;28;20035;-73
2022/01/08 07:30:12;;;;;;;21.47;9.43;;;0.40;99.90;;;;;;4959500;28;20220;-73
2022/01/08 07:32:47;;;;;;;19.00;9.13;;;0.40;99.90;;;;;;4975146;28;20042;-73
2022/01/08 07:35:14;;;;;;;21.77;11.17;;;0.40;99.90;;;;;;4980146;28;20043;-73
2022/01/08 07:37:42;;;;;;;19.87;10.30;;;0.40;99.90;;;;;;4979813;28;20021;-72
2022/01/08 07:40:11;;;;;;;18.63;10.63;;;0.40;99.90;;;;;;4976427;28;20401;-73
2022/01/08 07:42:38;;;;;;;20.23;10.33;;;0.40;99.90;;;;;;4972783;28;20034;-73
2022/01/08 07:45:05;;;;;;;20.20;11.07;;;0.40;99.90;;;;;;4976459;28;20030;-72
2022/01/08 07:47:32;;;;;;;20.07;10.47;;;0.40;99.90;;;;;;4962769;28;20018;-72
2022/01/08 07:49:58;;;;;;;22.70;10.97;;;0.40;99.90;;;;;;4962882;28;20034;-73
2022/01/08 07:52:25;;;;;;;18.37;9.27;;;0.40;99.90;;;;;;4977541;28;20041;-73
2022/01/08 07:54:51;;;;;;;20.10;12.07;;;0.40;99.90;;;;;;4979787;28;20031;-72
2022/01/08 07:57:18;;;;;;;18.77;11.00;;;0.40;99.90;;;;;;4977483;28;20033;-72
2022/01/08 07:59:44;;;;;;;21.37;10.10;;;0.50;99.90;;;;;;4976891;28;20038;-74
2022/01/08 08:02:11;;;;;;;15.40;9.43;;;0.50;99.90;;;;;;4975508;28;20038;-76
2022/01/08 08:04:37;;;;;;;24.10;10.27;;;0.50;99.90;;;;;;4978645;28;20370;-76
2022/01/08 08:07:04;;;;;;;23.20;11.77;;;0.60;99.90;;;;;;4980970;28;20040;-76
2022/01/08 08:09:31;;;;;;;20.90;11.57;;;0.60;99.90;;;;;;4976908;28;20485;-76
2022/01/08 08:11:57;;;;;;;21.47;12.97;;;0.70;99.90;;;;;;4976217;28;20026;-77
2022/01/08 08:14:24;;;;;;;19.93;12.50;;;0.70;99.90;;;;;;4975946;28;20038;-76
2022/01/08 08:16:51;;;;;;;24.10;12.83;;;0.80;99.90;;;;;;4977992;28;20026;-76
2022/01/08 08:19:17;;;;;;;25.73;14.97;;;0.80;99.90;;;;;;4980398;28;20030;-76
2022/01/08 08:21:44;;;;;;;22.87;13.30;;;0.80;99.90;;;;;;4981174;28;20039;-76
2022/01/08 08:24:10;;;;;;;19.70;11.53;;;0.80;99.90;;;;;;4982244;28;20041;-76
2022/01/08 08:26:38;;;;;;;18.43;11.97;;;0.90;99.90;;;;;;4984433;28;20029;-76
2022/01/08 08:29:05;;;;;;;28.30;16.20;;;0.90;99.90;;;;;;4985153;28;20031;-76
2022/01/08 08:31:31;;;;;;;25.13;14.53;;;0.90;99.90;;;;;;4979967;28;20026;-73
2022/01/08 08:33:58;;;;;;;23.77;13.27;;;0.90;99.90;;;;;;4976953;28;20026;-75
2022/01/08 08:36:24;;;;;;;26.40;13.43;;;1.00;99.90;;;;;;4979600;28;20029;-76
2022/01/08 08:38:51;;;;;;;24.30;13.83;;;1.00;99.90;;;;;;4964736;28;20474;-75
2022/01/08 08:41:17;;;;;;;25.77;14.30;;;1.10;99.90;;;;;;4978865;28;20042;-75
2022/01/08 08:43:43;;;;;;;26.07;16.00;;;1.10;99.90;;;;;;4976852;28;20023;-76
2022/01/08 08:46:10;;;;;;;22.03;14.10;;;1.10;99.90;;;;;;4981567;28;20026;-75
2022/01/08 08:48:36;;;;;;;22.13;13.33;;;1.20;99.90;;;;;;4981344;28;20023;-75
2022/01/08 08:51:03;;;;;;;24.53;12.60;;;1.20;99.90;;;;;;4976370;28;20019;-75
2022/01/08 08:53:30;;;;;;;22.10;11.93;;;1.20;99.90;;;;;;4975570;28;20030;-75
2022/01/08 08:55:56;;;;;;;15.23;10.30;;;1.20;99.90;;;;;;4980643;28;20034;-75
2022/01/08 08:58:23;;;;;;;15.60;11.00;;;1.30;99.90;;;;;;4977430;28;20022;-75
2022/01/08 09:00:49;;;;;;;22.83;15.17;;;1.30;99.90;;;;;;4978715;28;20052;-75
2022/01/08 09:03:17;;;;;;;19.37;13.70;;;1.40;99.90;;;;;;4963726;28;20374;-75
2022/01/08 09:05:43;;;;;;;23.77;13.17;;;1.40;99.90;;;;;;4995787;28;20049;-75
2022/01/08 09:08:10;;;;;;;25.77;14.23;;;1.40;99.90;;;;;;4967253;28;20078;-75
2022/01/08 09:10:36;;;;;;;35.80;20.63;;;1.40;99.90;;;;;;4980531;28;20033;-75
2022/01/08 09:13:02;;;;;;;30.27;17.13;;;1.50;99.90;;;;;;4977639;28;20026;-75
2022/01/08 09:15:29;;;;;;;30.10;16.70;;;1.50;99.90;;;;;;4980056;28;20026;-75
2022/01/08 09:17:57;;;;;;;28.97;16.37;;;1.60;99.90;;;;;;4981106;28;20019;-75
2022/01/08 09:20:26;;;;;;;21.90;14.63;;;1.60;99.90;;;;;;4978145;28;20054;-72
2022/01/08 09:22:53;;;;;;;22.53;12.67;;;1.60;99.90;;;;;;4976254;28;20045;-72
2022/01/08 09:25:20;;;;;;;22.70;12.90;;;1.70;99.90;;;;;;4976963;28;20033;-73
2022/01/08 09:27:47;;;;;;;23.83;13.37;;;1.70;99.90;;;;;;4978465;28;20029;-73
2022/01/08 09:30:14;;;;;;;21.73;13.23;;;1.80;99.90;;;;;;4979283;28;20022;-73
2022/01/08 09:32:45;;;;;;;21.47;12.93;;;1.90;99.90;;;;;;4976510;28;20045;-73
2022/01/08 09:35:13;;;;;;;23.33;14.30;;;2.00;99.90;;;;;;4975523;28;20030;-73
2022/01/08 09:37:40;;;;;;;23.83;15.00;;;2.00;99.90;;;;;;4979756;28;20045;-73
2022/01/08 09:40:11;;;;;;;29.80;14.80;;;2.10;99.90;;;;;;4978125;28;20011;-73
2022/01/08 09:42:41;;;;;;;24.03;14.60;;;2.20;99.90;;;;;;4957621;28;20042;-72
2022/01/08 09:45:09;;;;;;;28.97;15.07;;;2.30;99.90;;;;;;4978783;28;20030;-72
2022/01/08 09:47:36;;;;;;;23.83;13.03;;;2.30;99.90;;;;;;4981408;28;20026;-72
2022/01/08 09:50:03;;;;;;;29.87;17.73;;;2.40;99.90;;;;;;4962945;28;20026;-72
2022/01/08 09:52:30;;;;;;;26.87;16.53;;;2.40;99.90;;;;;;4975389;28;20025;-73
2022/01/08 09:54:57;;;;;;;29.90;17.37;;;2.50;99.90;;;;;;4978546;28;20511;-73
2022/01/08 09:57:24;;;;;;;31.00;17.30;;;2.50;99.90;;;;;;4981551;28;20558;-73
2022/01/08 09:59:51;;;;;;;31.60;17.67;;;2.50;99.90;;;;;;4978527;28;20025;-74
2022/01/08 10:02:22;;;;;;;30.07;15.87;;;2.60;99.90;;;;;;4978789;28;20034;-73
2022/01/08 10:04:50;;;;;;;27.27;15.07;;;2.70;99.90;;;;;;4979462;28;20624;-73
2022/01/08 10:07:26;;;;;;;30.90;16.97;;;2.70;99.90;;;;;;4979458;28;20098;-72
2022/01/08 10:10:07;;;;;;;27.33;15.47;;;2.70;99.90;;;;;;4978911;28;20462;-72
2022/01/08 10:12:50;;;;;;;26.23;15.53;;;2.70;99.90;;;;;;4943172;28;20039;-72
2022/01/08 10:18:30;;;;;;;32.23;17.13;;;2.80;99.90;;;;;;4977334;28;20026;-72
2022/01/08 10:20:58;;;;;;;31.63;15.90;;;2.90;99.90;;;;;;4976485;28;20034;-71
2022/01/08 10:23:30;;;;;;;24.93;15.80;;;3.00;99.90;;;;;;4975556;28;20030;-72
2022/01/08 10:25:59;;;;;;;;;;;3.00;99.90;;;;;;4978673;28;20022;-72
2022/01/08 10:28:54;;;;;;;30.43;18.50;;;3.00;99.90;;;;;;4982004;28;20281;-72
2022/01/08 10:31:38;;;;;;;35.00;19.37;;;3.00;99.90;;;;;;4978082;28;20525;-72
2022/01/08 10:34:30;;;;;;;52.00;25.87;;;3.00;99.90;;;;;;4974025;28;20340;-72
2022/01/08 10:36:56;;;;;;;34.90;19.10;;;3.10;99.90;;;;;;4973293;28;20811;-74
2022/01/08 10:39:29;;;;;;;34.17;17.93;;;3.10;99.90;;;;;;4962394;28;20385;-74
2022/01/08 10:41:58;;;;;;;36.60;19.48;;;3.20;99.90;;;;;;4957940;28;20041;-74
2022/01/08 10:44:26;;;;;;;38.57;20.03;;;3.20;99.90;;;;;;4977614;28;20057;-75
2022/01/08 10:46:57;;;;;;;34.47;20.00;;;3.30;99.90;;;;;;4977717;28;20018;-75
2022/01/08 10:49:36;;;;;;;30.97;18.30;;;3.40;99.90;;;;;;4981599;28;20026;-75
2022/01/08 10:52:11;;;;;;;37.73;19.27;;;3.50;99.90;;;;;;4976986;28;20038;-74
2022/01/08 10:54:39;;;;;;;45.27;20.40;;;3.60;99.90;;;;;;4962941;28;20475;-74
2022/01/08 10:57:08;;;;;;;29.73;19.57;;;3.60;99.90;;;;;;4961248;28;20022;-74
2022/01/08 11:00:06;;;;;;;38.97;21.13;;;3.70;99.90;;;;;;4973148;28;20031;-75
2022/01/08 11:02:50;;;;;;;37.45;20.58;;;3.80;99.90;;;;;;4942713;28;20072;-75
2022/01/08 11:05:16;;;;;;;33.00;18.03;;;3.80;99.90;;;;;;4973628;28;20035;-75
2022/01/08 11:07:44;;;;;;;36.33;21.83;;;3.90;99.90;;;;;;4976593;28;20038;-75
2022/01/08 11:10:17;;;;;;;40.03;19.73;;;3.90;99.90;;;;;;4975190;28;20037;-75
2022/01/08 11:12:45;;;;;;;;;;;4.00;99.90;;;;;;4976484;28;20038;-75
2022/01/08 11:17:47;;;;;;;32.37;19.43;;;4.10;99.90;;;;;;4982679;28;20030;-74
2022/01/08 11:20:20;;;;;;;33.90;19.60;;;4.10;99.90;;;;;;4962825;28;20038;-74
2022/01/08 11:22:48;;;;;;;31.10;19.37;;;4.10;99.90;;;;;;4973674;28;20058;-74
2022/01/08 11:25:32;;;;;;;36.47;20.17;;;4.00;99.90;;;;;;4961479;28;20374;-74
2022/01/08 11:28:15;;;;;;;38.50;20.43;;;4.00;99.90;;;;;;4947288;28;20018;-75
2022/01/08 11:30:47;;;;;;;40.92;21.90;;;4.00;99.90;;;;;;4976244;28;20034;-74
2022/01/08 11:33:22;;;;;;;40.30;22.57;;;4.00;99.90;;;;;;4977231;28;20037;-74
2022/01/08 11:35:50;;;;;;;43.67;23.73;;;3.90;99.90;;;;;;4977433;28;20022;-74
2022/01/08 11:38:20;;;;;;;41.55;22.00;;;3.90;99.90;;;;;;4978283;28;20018;-74
2022/01/08 11:40:51;;;;;;;37.50;21.60;;;3.90;99.90;;;;;;4977888;28;20018;-74
2022/01/08 11:43:21;;;;;;;39.70;20.80;;;3.90;99.90;;;;;;4976871;28;20030;-74
2022/01/08 11:45:59;;;;;;;33.65;18.90;;;3.90;99.90;;;;;;4978100;28;20026;-73
2022/01/08 11:48:34;;;;;;;33.78;19.52;;;4.00;99.90;;;;;;4979703;28;20022;-74
2022/01/08 11:51:02;;;;;;;32.75;20.02;;;4.00;99.90;;;;;;4976698;28;20026;-74
2022/01/08 11:53:33;;;;;;;33.40;19.57;;;4.10;99.90;;;;;;4978772;28;20041;-74
2022/01/08 11:56:05;;;;;;;34.77;18.53;;;4.00;99.90;;;;;;4984477;28;20034;-73
2022/01/08 11:58:36;;;;;;;32.80;18.02;;;4.00;99.90;;;;;;4985137;28;20026;-74
2022/01/08 12:01:05;;;;;;;38.33;18.90;;;4.10;99.90;;;;;;4980875;28;20046;-74
2022/01/08 12:03:39;;;;;;;35.63;19.33;;;4.10;99.90;;;;;;4965761;28;20032;-74
2022/01/08 12:06:25;;;;;;;36.67;19.37;;;4.10;99.90;;;;;;4981387;28;20367;-74
2022/01/08 12:09:17;;;;;;;33.53;18.93;;;4.10;99.90;;;;;;4984396;28;20946;-74
2022/01/08 12:11:46;;;;;;;35.60;21.00;;;4.10;99.90;;;;;;4965916;28;20368;-74
2022/01/08 12:14:15;;;;;;;38.77;21.77;;;4.10;99.90;;;;;;4984265;28;20057;-74
2022/01/08 12:16:44;;;;;;;35.93;19.90;;;4.10;99.90;;;;;;4966452;28;20026;-74
2022/01/08 12:19:28;;;;;;;29.63;17.00;;;4.10;99.90;;;;;;4965709;28;20504;-74
2022/01/08 12:21:55;;;;;;;31.93;17.93;;;4.10;99.90;;;;;;4966281;28;20042;-75
2022/01/08 12:24:24;;;;;;;29.77;16.73;;;4.10;99.90;;;;;;4978084;28;20021;-75
2022/01/08 12:26:51;;;;;;;29.80;15.63;;;4.10;99.90;;;;;;4980491;28;20556;-75
2022/01/08 12:29:37;;;;;;;27.40;17.20;;;4.00;99.90;;;;;;4982804;28;20014;-75
2022/01/08 12:32:20;;;;;;;23.95;14.13;;;4.00;99.90;;;;;;4965291;28;20072;-75
2022/01/08 12:34:49;;;;;;;27.90;14.33;;;4.00;99.90;;;;;;4983875;28;20026;-75
2022/01/08 12:37:18;;;;;;;26.43;14.57;;;4.00;99.90;;;;;;4981096;28;20038;-75
2022/01/08 12:39:55;;;;;;;29.73;14.90;;;4.10;99.90;;;;;;4982405;28;20029;-75
2022/01/08 12:42:25;;;;;;;28.30;14.67;;;4.10;99.90;;;;;;5011541;28;20038;-75
2022/01/08 12:45:23;;;;;;;23.77;13.70;;;4.10;99.90;;;;;;4964088;28;20033;-75
2022/01/08 12:48:04;;;;;;;29.77;13.90;;;4.10;99.90;;;;;;4978146;28;20035;-75
2022/01/08 12:50:32;;;;;;;23.67;13.90;;;4.10;99.90;;;;;;4978766;28;20027;-75
2022/01/08 12:53:07;;;;;;;22.37;13.53;;;4.20;99.90;;;;;;4978367;28;20034;-75
2022/01/08 12:55:40;;;;;;;24.50;12.90;;;4.20;99.90;;;;;;4980901;28;20354;-75
2022/01/08 12:58:16;;;;;;;27.25;12.18;;;4.20;99.90;;;;;;4982512;28;20025;-75
2022/01/08 13:01:12;;;;;;;26.17;12.23;;;4.20;99.90;;;;;;4982217;28;20030;-75
2022/01/08 13:03:41;;;;;;;20.37;11.00;;;4.20;99.90;;;;;;4979478;28;20398;-75
2022/01/08 13:06:13;;;;;;;22.27;11.67;;;4.20;99.90;;;;;;4978558;28;20042;-75
2022/01/08 13:08:45;;;;;;;18.58;11.00;;;4.20;99.90;;;;;;4969251;28;20026;-75
2022/01/08 13:11:14;;;;;;;17.73;11.20;;;4.20;99.90;;;;;;4980152;28;20026;-75
2022/01/08 13:13:47;;;;;;;18.40;10.25;;;4.20;99.90;;;;;;4978019;28;20480;-75
2022/01/08 13:16:21;;;;;;;22.25;9.95;;;4.20;99.90;;;;;;4981800;28;20137;-75
2022/01/08 13:18:51;;;;;;;16.33;9.40;;;4.20;99.90;;;;;;4983318;28;20386;-75